sensor_id;sensor_type;location;lat;lon;timestamp;P1;durP1;ratioP1;P2;durP2;ratioP2
20014;SDS011;61787;42.022;23.078;2024-03-23T00:52:37;7.80;;;4.38;;
20014;SDS011;61787;42.022;23.078;2024-03-23T00:53:38;5.75;;;3.83;;
20014;SDS011;61787;42.022;23.078;2024-03-23T00:54:39;7.40;;;4.50;;
20014;SDS011;61787;42.022;23.078;2024-03-23T00:55:40;9.07;;;4.72;;
20014;SDS011;61787;42.022;23.078;2024-03-23T00:56:43;9.45;;;4.07;;
20014;SDS011;61787;42.022;23.078;2024-03-23T00:57:44;5.55;;;3.72;;
20014;SDS011;61787;42.022;23.078;2024-03-23T00:58:44;7.00;;;4.20;;
20014;SDS011;61787;42.022;23.078;2024-03-23T00:59:45;6.45;;;3.58;;
20014;SDS011;61787;42.022;23.078;2024-03-23T01:00:46;7.22;;;3.90;;
20014;SDS011;61787;42.022;23.078;2024-03-23T01:01:46;5.55;;;3.72;;
20014;SDS011;61787;42.022;23.078;2024-03-23T01:02:47;6.13;;;3.97;;
20014;SDS011;61787;42.022;23.078;2024-03-23T01:03:48;7.97;;;4.10;;
20014;SDS011;61787;42.022;23.078;2024-03-23T01:04:48;10.35;;;4.43;;
20014;SDS011;61787;42.022;23.078;2024-03-23T01:05:49;8.05;;;3.95;;
20014;SDS011;61787;42.022;23.078;2024-03-23T01:06:49;5.22;;;3.67;;
20014;SDS011;61787;42.022;23.078;2024-03-23T01:07:50;8.15;;;4.68;;
20014;SDS011;61787;42.022;23.078;2024-03-23T01:08:51;7.93;;;4.07;;
20014;SDS011;61787;42.022;23.078;2024-03-23T01:09:52;7.32;;;4.60;;
20014;SDS011;61787;42.022;23.078;2024-03-23T01:10:54;6.57;;;3.58;;
20014;SDS011;61787;42.022;23.078;2024-03-23T01:12:04;8.48;;;4.97;;
20014;SDS011;61787;42.022;23.078;2024-03-23T01:13:05;7.88;;;4.78;;
20014;SDS011;61787;42.022;23.078;2024-03-23T01:14:06;7.28;;;4.05;;
20014;SDS011;61787;42.022;23.078;2024-03-23T01:15:22;8.60;;;4.72;;
20014;SDS011;61787;42.022;23.078;2024-03-23T01:16:44;11.98;;;5.10;;
20014;SDS011;61787;42.022;23.078;2024-03-23T01:17:45;8.45;;;4.97;;
20014;SDS011;61787;42.022;23.078;2024-03-23T01:18:45;8.38;;;4.55;;
20014;SDS011;61787;42.022;23.078;2024-03-23T01:19:47;8.43;;;4.80;;
20014;SDS011;61787;42.022;23.078;2024-03-23T01:20:47;6.90;;;4.80;;
20014;SDS011;61787;42.022;23.078;2024-03-23T01:21:48;6.88;;;4.88;;
20014;SDS011;61787;42.022;23.078;2024-03-23T01:22:49;8.95;;;4.90;;
20014;SDS011;61787;42.022;23.078;2024-03-23T01:23:50;6.45;;;4.53;;
20014;SDS011;61787;42.022;23.078;2024-03-23T01:24:50;8.35;;;5.22;;
20014;SDS011;61787;42.022;23.078;2024-03-23T01:25:52;7.45;;;5.68;;
20014;SDS011;61787;42.022;23.078;2024-03-23T01:26:55;7.70;;;5.57;;
20014;SDS011;61787;42.022;23.078;2024-03-23T01:27:55;10.45;;;5.68;;
20014;SDS011;61787;42.022;23.078;2024-03-23T01:28:56;9.15;;;5.38;;
20014;SDS011;61787;42.022;23.078;2024-03-23T01:29:57;10.13;;;5.55;;
20014;SDS011;61787;42.022;23.078;2024-03-23T01:30:57;9.98;;;5.30;;
20014;SDS011;61787;42.022;23.078;2024-03-23T01:31:58;8.05;;;5.05;;
20014;SDS011;61787;42.022;23.078;2024-03-23T01:32:58;7.90;;;5.60;;
20014;SDS011;61787;42.022;23.078;2024-03-23T01:33:59;8.52;;;5.85;;
20014;SDS011;61787;42.022;23.078;2024-03-23T01:35:00;9.07;;;6.05;;
20014;SDS011;61787;42.022;23.078;2024-03-23T01:36:01;8.48;;;6.15;;
20014;SDS011;61787;42.022;23.078;2024-03-23T01:37:02;9.70;;;5.60;;
20014;SDS011;61787;42.022;23.078;2024-03-23T01:38:02;11.40;;;5.75;;
20014;SDS011;61787;42.022;23.078;2024-03-23T01:39:03;8.38;;;5.50;;
20014;SDS011;61787;42.022;23.078;2024-03-23T01:40:04;8.30;;;5.65;;
20014;SDS011;61787;42.022;23.078;2024-03-23T01:41:05;9.00;;;6.28;;
20014;SDS011;61787;42.022;23.078;2024-03-23T01:42:06;6.13;;;4.50;;
20014;SDS011;61787;42.022;23.078;2024-03-23T01:43:07;8.63;;;5.47;;
20014;SDS011;61787;42.022;23.078;2024-03-23T01:44:08;12.98;;;6.53;;
20014;SDS011;61787;42.022;23.078;2024-03-23T01:45:09;10.82;;;6.88;;
20014;SDS011;61787;42.022;23.078;2024-03-23T01:46:12;12.30;;;5.80;;
20014;SDS011;61787;42.022;23.078;2024-03-23T01:47:13;9.35;;;6.22;;
20014;SDS011;61787;42.022;23.078;2024-03-23T01:48:14;12.68;;;6.10;;
20014;SDS011;61787;42.022;23.078;2024-03-23T01:49:15;11.15;;;5.88;;
20014;SDS011;61787;42.022;23.078;2024-03-23T01:50:16;9.82;;;6.63;;
20014;SDS011;61787;42.022;23.078;2024-03-23T01:51:17;9.48;;;5.63;;
20014;SDS011;61787;42.022;23.078;2024-03-23T01:52:18;10.32;;;5.85;;
20014;SDS011;61787;42.022;23.078;2024-03-23T01:53:19;7.07;;;5.35;;
20014;SDS011;61787;42.022;23.078;2024-03-23T01:54:21;10.32;;;6.07;;
20014;SDS011;61787;42.022;23.078;2024-03-23T01:55:23;9.80;;;5.93;;
20014;SDS011;61787;42.022;23.078;2024-03-23T01:56:24;7.97;;;5.32;;
20014;SDS011;61787;42.022;23.078;2024-03-23T01:57:26;10.32;;;5.53;;
20014;SDS011;61787;42.022;23.078;2024-03-23T01:58:26;9.65;;;6.07;;
20014;SDS011;61787;42.022;23.078;2024-03-23T01:59:27;7.60;;;5.03;;
20014;SDS011;61787;42.022;23.078;2024-03-23T02:00:27;9.05;;;5.43;;
20014;SDS011;61787;42.022;23.078;2024-03-23T02:01:28;9.50;;;5.45;;
20014;SDS011;61787;42.022;23.078;2024-03-23T02:02:29;9.60;;;5.65;;
20014;SDS011;61787;42.022;23.078;2024-03-23T02:03:29;6.72;;;5.05;;
20014;SDS011;61787;42.022;23.078;2024-03-23T02:04:30;9.02;;;5.85;;
20014;SDS011;61787;42.022;23.078;2024-03-23T02:05:31;9.85;;;5.95;;
20014;SDS011;61787;42.022;23.078;2024-03-23T02:06:32;8.60;;;5.85;;
20014;SDS011;61787;42.022;23.078;2024-03-23T02:07:33;11.50;;;6.07;;
20014;SDS011;61787;42.022;23.078;2024-03-23T02:08:34;7.88;;;5.60;;
20014;SDS011;61787;42.022;23.078;2024-03-23T02:09:35;9.73;;;5.80;;
20014;SDS011;61787;42.022;23.078;2024-03-23T02:10:36;7.95;;;5.65;;
20014;SDS011;61787;42.022;23.078;2024-03-23T02:11:36;8.90;;;5.28;;
20014;SDS011;61787;42.022;23.078;2024-03-23T02:12:37;7.93;;;5.72;;
20014;SDS011;61787;42.022;23.078;2024-03-23T02:13:37;9.38;;;5.72;;
20014;SDS011;61787;42.022;23.078;2024-03-23T02:14:38;9.98;;;6.03;;
20014;SDS011;61787;42.022;23.078;2024-03-23T02:15:39;7.50;;;6.03;;
20014;SDS011;61787;42.022;23.078;2024-03-23T02:16:39;8.63;;;5.55;;
20014;SDS011;61787;42.022;23.078;2024-03-23T02:17:40;8.95;;;5.32;;
20014;SDS011;61787;42.022;23.078;2024-03-23T02:18:41;6.88;;;5.00;;
20014;SDS011;61787;42.022;23.078;2024-03-23T02:19:41;9.10;;;5.28;;
20014;SDS011;61787;42.022;23.078;2024-03-23T02:20:42;10.40;;;5.70;;
20014;SDS011;61787;42.022;23.078;2024-03-23T02:21:43;9.13;;;5.28;;
20014;SDS011;61787;42.022;23.078;2024-03-23T02:22:43;7.68;;;5.22;;
20014;SDS011;61787;42.022;23.078;2024-03-23T02:23:44;12.23;;;6.57;;
20014;SDS011;61787;42.022;23.078;2024-03-23T02:24:44;9.57;;;5.60;;
20014;SDS011;61787;42.022;23.078;2024-03-23T02:25:45;7.55;;;4.97;;
20014;SDS011;61787;42.022;23.078;2024-03-23T02:26:46;6.85;;;5.43;;
20014;SDS011;61787;42.022;23.078;2024-03-23T02:27:48;10.23;;;6.28;;
20014;SDS011;61787;42.022;23.078;2024-03-23T02:28:49;6.60;;;5.28;;
20014;SDS011;61787;42.022;23.078;2024-03-23T02:29:50;7.57;;;5.75;;
20014;SDS011;61787;42.022;23.078;2024-03-23T02:30:51;8.70;;;6.10;;
20014;SDS011;61787;42.022;23.078;2024-03-23T02:31:52;8.25;;;5.57;;
20014;SDS011;61787;42.022;23.078;2024-03-23T02:32:52;7.97;;;5.28;;
20014;SDS011;61787;42.022;23.078;2024-03-23T02:33:53;7.65;;;5.38;;
20014;SDS011;61787;42.022;23.078;2024-03-23T02:34:53;8.80;;;5.47;;
20014;SDS011;61787;42.022;23.078;2024-03-23T02:35:55;7.15;;;5.35;;
20014;SDS011;61787;42.022;23.078;2024-03-23T02:36:56;8.32;;;5.53;;
20014;SDS011;61787;42.022;23.078;2024-03-23T02:37:57;9.93;;;6.40;;
20014;SDS011;61787;42.022;23.078;2024-03-23T02:38:58;9.15;;;5.18;;
20014;SDS011;61787;42.022;23.078;2024-03-23T02:39:58;11.27;;;5.43;;
20014;SDS011;61787;42.022;23.078;2024-03-23T02:41:05;10.70;;;5.38;;
20014;SDS011;61787;42.022;23.078;2024-03-23T02:42:06;10.63;;;5.95;;
20014;SDS011;61787;42.022;23.078;2024-03-23T02:43:06;11.32;;;5.70;;
20014;SDS011;61787;42.022;23.078;2024-03-23T02:44:07;7.65;;;4.97;;
20014;SDS011;61787;42.022;23.078;2024-03-23T02:45:08;8.88;;;5.53;;
20014;SDS011;61787;42.022;23.078;2024-03-23T02:46:08;8.27;;;5.47;;
20014;SDS011;61787;42.022;23.078;2024-03-23T02:47:09;10.52;;;6.18;;
20014;SDS011;61787;42.022;23.078;2024-03-23T02:48:10;12.68;;;6.53;;
20014;SDS011;61787;42.022;23.078;2024-03-23T02:49:10;8.75;;;5.75;;
20014;SDS011;61787;42.022;23.078;2024-03-23T02:50:11;10.85;;;6.57;;
20014;SDS011;61787;42.022;23.078;2024-03-23T02:51:12;11.30;;;6.25;;
20014;SDS011;61787;42.022;23.078;2024-03-23T02:52:12;10.13;;;6.13;;
20014;SDS011;61787;42.022;23.078;2024-03-23T02:53:13;9.05;;;5.55;;
20014;SDS011;61787;42.022;23.078;2024-03-23T02:54:14;7.35;;;5.85;;
20014;SDS011;61787;42.022;23.078;2024-03-23T02:55:15;10.15;;;6.20;;
20014;SDS011;61787;42.022;23.078;2024-03-23T02:56:15;9.05;;;5.53;;
20014;SDS011;61787;42.022;23.078;2024-03-23T02:57:16;8.00;;;5.50;;
20014;SDS011;61787;42.022;23.078;2024-03-23T02:58:17;9.80;;;5.97;;
20014;SDS011;61787;42.022;23.078;2024-03-23T02:59:18;7.65;;;5.30;;
20014;SDS011;61787;42.022;23.078;2024-03-23T03:00:19;7.90;;;5.18;;
20014;SDS011;61787;42.022;23.078;2024-03-23T03:01:19;9.55;;;5.57;;
20014;SDS011;61787;42.022;23.078;2024-03-23T03:02:20;10.52;;;5.80;;
20014;SDS011;61787;42.022;23.078;2024-03-23T03:03:21;8.70;;;5.68;;
20014;SDS011;61787;42.022;23.078;2024-03-23T03:04:22;8.77;;;6.20;;
20014;SDS011;61787;42.022;23.078;2024-03-23T03:05:22;9.20;;;5.20;;
20014;SDS011;61787;42.022;23.078;2024-03-23T03:06:26;11.13;;;5.35;;
20014;SDS011;61787;42.022;23.078;2024-03-23T03:07:27;9.95;;;6.07;;
20014;SDS011;61787;42.022;23.078;2024-03-23T03:08:27;7.88;;;5.05;;
20014;SDS011;61787;42.022;23.078;2024-03-23T03:09:28;9.85;;;4.72;;
20014;SDS011;61787;42.022;23.078;2024-03-23T03:10:29;6.80;;;4.50;;
20014;SDS011;61787;42.022;23.078;2024-03-23T03:11:30;13.82;;;6.55;;
20014;SDS011;61787;42.022;23.078;2024-03-23T03:12:31;8.98;;;4.85;;
20014;SDS011;61787;42.022;23.078;2024-03-23T03:13:32;7.35;;;4.75;;
20014;SDS011;61787;42.022;23.078;2024-03-23T03:14:33;9.50;;;4.70;;
20014;SDS011;61787;42.022;23.078;2024-03-23T03:15:34;7.40;;;4.32;;
20014;SDS011;61787;42.022;23.078;2024-03-23T03:16:34;6.75;;;4.13;;
20014;SDS011;61787;42.022;23.078;2024-03-23T03:17:35;8.40;;;4.65;;
20014;SDS011;61787;42.022;23.078;2024-03-23T03:18:36;7.60;;;4.78;;
20014;SDS011;61787;42.022;23.078;2024-03-23T03:19:37;6.18;;;4.40;;
20014;SDS011;61787;42.022;23.078;2024-03-23T03:20:40;7.70;;;4.32;;
20014;SDS011;61787;42.022;23.078;2024-03-23T03:21:41;5.32;;;3.83;;
20014;SDS011;61787;42.022;23.078;2024-03-23T03:22:41;6.90;;;3.97;;
20014;SDS011;61787;42.022;23.078;2024-03-23T03:23:42;8.98;;;4.68;;
20014;SDS011;61787;42.022;23.078;2024-03-23T03:24:44;6.38;;;4.18;;
20014;SDS011;61787;42.022;23.078;2024-03-23T03:25:45;6.97;;;3.97;;
20014;SDS011;61787;42.022;23.078;2024-03-23T03:26:45;7.53;;;4.43;;
20014;SDS011;61787;42.022;23.078;2024-03-23T03:27:46;7.68;;;4.15;;
20014;SDS011;61787;42.022;23.078;2024-03-23T03:28:47;8.65;;;4.50;;
20014;SDS011;61787;42.022;23.078;2024-03-23T03:29:49;7.78;;;4.68;;
20014;SDS011;61787;42.022;23.078;2024-03-23T03:30:49;8.32;;;4.65;;
20014;SDS011;61787;42.022;23.078;2024-03-23T03:31:50;8.00;;;4.72;;
20014;SDS011;61787;42.022;23.078;2024-03-23T03:32:54;5.57;;;3.95;;
20014;SDS011;61787;42.022;23.078;2024-03-23T03:33:55;6.88;;;4.03;;
20014;SDS011;61787;42.022;23.078;2024-03-23T03:34:56;7.97;;;4.20;;
20014;SDS011;61787;42.022;23.078;2024-03-23T03:35:56;8.23;;;5.10;;
20014;SDS011;61787;42.022;23.078;2024-03-23T03:36:57;7.78;;;4.97;;
20014;SDS011;61787;42.022;23.078;2024-03-23T03:37:59;6.35;;;4.25;;
20014;SDS011;61787;42.022;23.078;2024-03-23T03:39:00;7.55;;;4.15;;
20014;SDS011;61787;42.022;23.078;2024-03-23T03:40:03;7.78;;;4.75;;
20014;SDS011;61787;42.022;23.078;2024-03-23T03:41:04;5.50;;;3.88;;
20014;SDS011;61787;42.022;23.078;2024-03-23T03:42:06;8.98;;;5.03;;
20014;SDS011;61787;42.022;23.078;2024-03-23T03:43:07;9.73;;;5.63;;
20014;SDS011;61787;42.022;23.078;2024-03-23T03:44:08;6.53;;;4.10;;
20014;SDS011;61787;42.022;23.078;2024-03-23T03:45:09;9.30;;;5.38;;
20014;SDS011;61787;42.022;23.078;2024-03-23T03:46:09;7.00;;;4.30;;
20014;SDS011;61787;42.022;23.078;2024-03-23T03:47:11;6.80;;;4.68;;
20014;SDS011;61787;42.022;23.078;2024-03-23T03:48:11;8.07;;;5.50;;
20014;SDS011;61787;42.022;23.078;2024-03-23T03:49:12;7.38;;;4.60;;
20014;SDS011;61787;42.022;23.078;2024-03-23T03:50:12;7.47;;;4.57;;
20014;SDS011;61787;42.022;23.078;2024-03-23T03:51:13;8.60;;;5.43;;
20014;SDS011;61787;42.022;23.078;2024-03-23T03:52:14;10.30;;;4.80;;
20014;SDS011;61787;42.022;23.078;2024-03-23T03:53:15;10.68;;;5.28;;
20014;SDS011;61787;42.022;23.078;2024-03-23T03:54:16;8.88;;;5.18;;
20014;SDS011;61787;42.022;23.078;2024-03-23T03:55:17;7.40;;;4.45;;
20014;SDS011;61787;42.022;23.078;2024-03-23T03:56:17;8.15;;;4.55;;
20014;SDS011;61787;42.022;23.078;2024-03-23T03:57:18;8.13;;;4.97;;
20014;SDS011;61787;42.022;23.078;2024-03-23T03:58:19;7.07;;;4.68;;
20014;SDS011;61787;42.022;23.078;2024-03-23T03:59:19;9.45;;;4.85;;
20014;SDS011;61787;42.022;23.078;2024-03-23T04:00:20;9.95;;;4.47;;
20014;SDS011;61787;42.022;23.078;2024-03-23T04:01:21;8.15;;;4.75;;
20014;SDS011;61787;42.022;23.078;2024-03-23T04:02:22;6.72;;;4.30;;
20014;SDS011;61787;42.022;23.078;2024-03-23T04:03:22;7.55;;;4.75;;
20014;SDS011;61787;42.022;23.078;2024-03-23T04:04:23;9.52;;;4.97;;
20014;SDS011;61787;42.022;23.078;2024-03-23T04:05:24;8.15;;;5.25;;
20014;SDS011;61787;42.022;23.078;2024-03-23T04:06:24;11.45;;;5.20;;
20014;SDS011;61787;42.022;23.078;2024-03-23T04:07:25;10.27;;;4.70;;
20014;SDS011;61787;42.022;23.078;2024-03-23T04:08:26;7.57;;;5.05;;
20014;SDS011;61787;42.022;23.078;2024-03-23T04:09:26;8.02;;;5.55;;
20014;SDS011;61787;42.022;23.078;2024-03-23T04:10:27;6.00;;;4.60;;
20014;SDS011;61787;42.022;23.078;2024-03-23T04:11:28;12.20;;;6.90;;
20014;SDS011;61787;42.022;23.078;2024-03-23T04:12:29;9.27;;;5.13;;
20014;SDS011;61787;42.022;23.078;2024-03-23T04:13:29;9.52;;;5.63;;
20014;SDS011;61787;42.022;23.078;2024-03-23T04:14:30;7.65;;;4.80;;
20014;SDS011;61787;42.022;23.078;2024-03-23T04:15:30;11.00;;;6.18;;
20014;SDS011;61787;42.022;23.078;2024-03-23T04:16:33;9.88;;;5.68;;
20014;SDS011;61787;42.022;23.078;2024-03-23T04:17:35;9.77;;;6.00;;
20014;SDS011;61787;42.022;23.078;2024-03-23T04:18:36;9.48;;;5.55;;
20014;SDS011;61787;42.022;23.078;2024-03-23T04:19:37;9.43;;;6.28;;
20014;SDS011;61787;42.022;23.078;2024-03-23T04:20:37;8.93;;;6.65;;
20014;SDS011;61787;42.022;23.078;2024-03-23T04:21:38;10.07;;;6.60;;
20014;SDS011;61787;42.022;23.078;2024-03-23T04:22:39;11.98;;;6.75;;
20014;SDS011;61787;42.022;23.078;2024-03-23T04:23:40;12.25;;;7.80;;
20014;SDS011;61787;42.022;23.078;2024-03-23T04:24:40;18.05;;;6.95;;
20014;SDS011;61787;42.022;23.078;2024-03-23T04:25:41;9.00;;;6.22;;
20014;SDS011;61787;42.022;23.078;2024-03-23T04:26:42;10.75;;;6.20;;
20014;SDS011;61787;42.022;23.078;2024-03-23T04:27:43;9.93;;;5.38;;
20014;SDS011;61787;42.022;23.078;2024-03-23T04:28:44;10.45;;;6.03;;
20014;SDS011;61787;42.022;23.078;2024-03-23T04:29:50;8.15;;;6.10;;
20014;SDS011;61787;42.022;23.078;2024-03-23T04:30:51;9.57;;;5.45;;
20014;SDS011;61787;42.022;23.078;2024-03-23T04:31:52;9.60;;;5.60;;
20014;SDS011;61787;42.022;23.078;2024-03-23T04:32:52;10.60;;;6.20;;
20014;SDS011;61787;42.022;23.078;2024-03-23T04:33:53;7.88;;;5.15;;
20014;SDS011;61787;42.022;23.078;2024-03-23T04:34:54;10.30;;;5.35;;
20014;SDS011;61787;42.022;23.078;2024-03-23T04:35:55;12.27;;;6.30;;
20014;SDS011;61787;42.022;23.078;2024-03-23T04:36:55;10.95;;;6.25;;
20014;SDS011;61787;42.022;23.078;2024-03-23T04:37:56;13.63;;;6.15;;
20014;SDS011;61787;42.022;23.078;2024-03-23T04:38:59;10.07;;;5.85;;
20014;SDS011;61787;42.022;23.078;2024-03-23T04:40:01;7.30;;;4.93;;
20014;SDS011;61787;42.022;23.078;2024-03-23T04:41:02;10.85;;;6.60;;
20014;SDS011;61787;42.022;23.078;2024-03-23T04:42:02;10.50;;;6.20;;
20014;SDS011;61787;42.022;23.078;2024-03-23T04:43:04;8.80;;;6.18;;
20014;SDS011;61787;42.022;23.078;2024-03-23T04:44:05;11.85;;;6.53;;
20014;SDS011;61787;42.022;23.078;2024-03-23T04:45:06;9.45;;;5.88;;
20014;SDS011;61787;42.022;23.078;2024-03-23T04:46:06;6.70;;;5.13;;
20014;SDS011;61787;42.022;23.078;2024-03-23T04:47:07;11.80;;;6.25;;
20014;SDS011;61787;42.022;23.078;2024-03-23T04:48:08;10.15;;;6.07;;
20014;SDS011;61787;42.022;23.078;2024-03-23T04:49:08;8.70;;;5.85;;
20014;SDS011;61787;42.022;23.078;2024-03-23T04:50:09;8.75;;;5.57;;
20014;SDS011;61787;42.022;23.078;2024-03-23T04:51:25;8.50;;;5.90;;
20014;SDS011;61787;42.022;23.078;2024-03-23T04:52:26;13.10;;;6.28;;
20014;SDS011;61787;42.022;23.078;2024-03-23T04:53:27;9.20;;;6.53;;
20014;SDS011;61787;42.022;23.078;2024-03-23T04:54:30;10.05;;;6.28;;
20014;SDS011;61787;42.022;23.078;2024-03-23T04:55:32;8.63;;;6.05;;
20014;SDS011;61787;42.022;23.078;2024-03-23T04:56:33;10.98;;;6.38;;
20014;SDS011;61787;42.022;23.078;2024-03-23T04:57:34;10.45;;;5.68;;
20014;SDS011;61787;42.022;23.078;2024-03-23T04:58:34;9.82;;;6.40;;
20014;SDS011;61787;42.022;23.078;2024-03-23T04:59:35;7.68;;;4.80;;
20014;SDS011;61787;42.022;23.078;2024-03-23T05:00:35;13.20;;;6.65;;
20014;SDS011;61787;42.022;23.078;2024-03-23T05:01:36;8.60;;;5.72;;
20014;SDS011;61787;42.022;23.078;2024-03-23T05:02:38;9.38;;;5.95;;
20014;SDS011;61787;42.022;23.078;2024-03-23T05:03:39;7.35;;;5.50;;
20014;SDS011;61787;42.022;23.078;2024-03-23T05:04:40;9.25;;;5.70;;
20014;SDS011;61787;42.022;23.078;2024-03-23T05:05:40;12.82;;;6.03;;
20014;SDS011;61787;42.022;23.078;2024-03-23T05:06:41;8.13;;;4.78;;
20014;SDS011;61787;42.022;23.078;2024-03-23T05:07:42;7.97;;;4.82;;
20014;SDS011;61787;42.022;23.078;2024-03-23T05:08:42;8.75;;;6.38;;
20014;SDS011;61787;42.022;23.078;2024-03-23T05:09:43;15.07;;;9.32;;
20014;SDS011;61787;42.022;23.078;2024-03-23T05:10:43;13.00;;;9.70;;
20014;SDS011;61787;42.022;23.078;2024-03-23T05:11:44;16.60;;;10.00;;
20014;SDS011;61787;42.022;23.078;2024-03-23T05:12:45;14.85;;;9.98;;
20014;SDS011;61787;42.022;23.078;2024-03-23T05:13:45;19.67;;;10.45;;
20014;SDS011;61787;42.022;23.078;2024-03-23T05:14:46;14.80;;;10.23;;
20014;SDS011;61787;42.022;23.078;2024-03-23T05:15:52;18.00;;;9.73;;
20014;SDS011;61787;42.022;23.078;2024-03-23T05:16:53;16.52;;;9.38;;
20014;SDS011;61787;42.022;23.078;2024-03-23T05:17:54;17.00;;;10.13;;
20014;SDS011;61787;42.022;23.078;2024-03-23T05:18:55;17.75;;;10.85;;
20014;SDS011;61787;42.022;23.078;2024-03-23T05:19:56;13.65;;;9.80;;
20014;SDS011;61787;42.022;23.078;2024-03-23T05:20:57;14.38;;;8.20;;
20014;SDS011;61787;42.022;23.078;2024-03-23T05:21:59;11.45;;;8.02;;
20014;SDS011;61787;42.022;23.078;2024-03-23T05:22:59;13.65;;;6.82;;
20014;SDS011;61787;42.022;23.078;2024-03-23T05:24:00;11.02;;;6.53;;
20014;SDS011;61787;42.022;23.078;2024-03-23T05:25:01;11.77;;;6.47;;
20014;SDS011;61787;42.022;23.078;2024-03-23T05:26:04;8.27;;;4.95;;
20014;SDS011;61787;42.022;23.078;2024-03-23T05:27:05;8.00;;;4.25;;
20014;SDS011;61787;42.022;23.078;2024-03-23T05:28:06;6.22;;;4.75;;
20014;SDS011;61787;42.022;23.078;2024-03-23T05:29:07;7.05;;;4.43;;
20014;SDS011;61787;42.022;23.078;2024-03-23T05:30:11;7.50;;;5.38;;
20014;SDS011;61787;42.022;23.078;2024-03-23T05:31:11;8.82;;;5.53;;
20014;SDS011;61787;42.022;23.078;2024-03-23T05:32:12;7.63;;;5.38;;
20014;SDS011;61787;42.022;23.078;2024-03-23T05:33:13;9.55;;;6.47;;
20014;SDS011;61787;42.022;23.078;2024-03-23T05:34:13;10.15;;;6.00;;
20014;SDS011;61787;42.022;23.078;2024-03-23T05:35:14;10.93;;;7.03;;
20014;SDS011;61787;42.022;23.078;2024-03-23T05:36:15;9.77;;;7.28;;
20014;SDS011;61787;42.022;23.078;2024-03-23T05:37:15;11.65;;;7.18;;
20014;SDS011;61787;42.022;23.078;2024-03-23T05:38:16;10.77;;;6.88;;
20014;SDS011;61787;42.022;23.078;2024-03-23T05:39:16;9.48;;;7.00;;
20014;SDS011;61787;42.022;23.078;2024-03-23T05:40:17;9.43;;;5.85;;
20014;SDS011;61787;42.022;23.078;2024-03-23T05:41:17;10.98;;;6.50;;
20014;SDS011;61787;42.022;23.078;2024-03-23T05:42:18;10.73;;;5.72;;
20014;SDS011;61787;42.022;23.078;2024-03-23T05:43:19;8.90;;;5.90;;
20014;SDS011;61787;42.022;23.078;2024-03-23T05:44:20;11.35;;;6.78;;
20014;SDS011;61787;42.022;23.078;2024-03-23T05:45:20;11.38;;;6.40;;
20014;SDS011;61787;42.022;23.078;2024-03-23T05:46:21;12.07;;;6.28;;
20014;SDS011;61787;42.022;23.078;2024-03-23T05:47:21;10.40;;;6.68;;
20014;SDS011;61787;42.022;23.078;2024-03-23T05:48:22;14.32;;;6.82;;
20014;SDS011;61787;42.022;23.078;2024-03-23T05:49:23;11.25;;;8.30;;
20014;SDS011;61787;42.022;23.078;2024-03-23T05:50:25;13.18;;;9.07;;
20014;SDS011;61787;42.022;23.078;2024-03-23T05:51:26;13.85;;;8.35;;
20014;SDS011;61787;42.022;23.078;2024-03-23T05:52:26;9.98;;;8.55;;
20014;SDS011;61787;42.022;23.078;2024-03-23T05:53:27;14.70;;;9.13;;
20014;SDS011;61787;42.022;23.078;2024-03-23T05:54:30;13.85;;;10.48;;
20014;SDS011;61787;42.022;23.078;2024-03-23T05:55:31;15.15;;;10.35;;
20014;SDS011;61787;42.022;23.078;2024-03-23T05:56:32;14.40;;;11.20;;
20014;SDS011;61787;42.022;23.078;2024-03-23T05:57:33;13.57;;;10.65;;
20014;SDS011;61787;42.022;23.078;2024-03-23T05:58:33;17.02;;;11.43;;
20014;SDS011;61787;42.022;23.078;2024-03-23T05:59:34;18.15;;;12.43;;
20014;SDS011;61787;42.022;23.078;2024-03-23T06:00:35;17.05;;;12.75;;
20014;SDS011;61787;42.022;23.078;2024-03-23T06:01:35;19.33;;;12.48;;
20014;SDS011;61787;42.022;23.078;2024-03-23T06:02:36;14.60;;;9.85;;
20014;SDS011;61787;42.022;23.078;2024-03-23T06:03:36;14.82;;;8.23;;
20014;SDS011;61787;42.022;23.078;2024-03-23T06:04:37;10.75;;;6.97;;
20014;SDS011;61787;42.022;23.078;2024-03-23T06:05:38;11.73;;;7.03;;
20014;SDS011;61787;42.022;23.078;2024-03-23T06:06:39;13.25;;;7.80;;
20014;SDS011;61787;42.022;23.078;2024-03-23T06:07:40;12.57;;;7.15;;
20014;SDS011;61787;42.022;23.078;2024-03-23T06:08:40;10.30;;;7.05;;
20014;SDS011;61787;42.022;23.078;2024-03-23T06:09:41;14.50;;;8.18;;
20014;SDS011;61787;42.022;23.078;2024-03-23T06:10:42;11.02;;;7.38;;
20014;SDS011;61787;42.022;23.078;2024-03-23T06:11:43;11.75;;;7.50;;
20014;SDS011;61787;42.022;23.078;2024-03-23T06:12:43;12.55;;;8.32;;
20014;SDS011;61787;42.022;23.078;2024-03-23T06:13:44;11.85;;;7.65;;
20014;SDS011;61787;42.022;23.078;2024-03-23T06:14:44;13.13;;;8.45;;
20014;SDS011;61787;42.022;23.078;2024-03-23T06:15:45;14.07;;;9.05;;
20014;SDS011;61787;42.022;23.078;2024-03-23T06:16:46;14.15;;;8.10;;
20014;SDS011;61787;42.022;23.078;2024-03-23T06:17:48;12.27;;;8.45;;
20014;SDS011;61787;42.022;23.078;2024-03-23T06:18:49;15.52;;;8.35;;
20014;SDS011;61787;42.022;23.078;2024-03-23T06:19:50;15.57;;;8.95;;
20014;SDS011;61787;42.022;23.078;2024-03-23T06:20:51;13.50;;;9.20;;
20014;SDS011;61787;42.022;23.078;2024-03-23T06:21:51;16.85;;;9.48;;
20014;SDS011;61787;42.022;23.078;2024-03-23T06:22:52;14.35;;;8.88;;
20014;SDS011;61787;42.022;23.078;2024-03-23T06:23:53;17.27;;;9.13;;
20014;SDS011;61787;42.022;23.078;2024-03-23T06:24:54;13.88;;;9.20;;
20014;SDS011;61787;42.022;23.078;2024-03-23T06:25:54;20.00;;;9.65;;
20014;SDS011;61787;42.022;23.078;2024-03-23T06:26:55;17.02;;;10.48;;
20014;SDS011;61787;42.022;23.078;2024-03-23T06:27:56;18.45;;;10.93;;
20014;SDS011;61787;42.022;23.078;2024-03-23T06:28:58;13.45;;;9.73;;
20014;SDS011;61787;42.022;23.078;2024-03-23T06:29:59;13.80;;;9.15;;
20014;SDS011;61787;42.022;23.078;2024-03-23T06:31:00;14.77;;;9.93;;
20014;SDS011;61787;42.022;23.078;2024-03-23T06:32:01;14.32;;;10.52;;
20014;SDS011;61787;42.022;23.078;2024-03-23T06:33:01;16.05;;;8.95;;
20014;SDS011;61787;42.022;23.078;2024-03-23T06:34:02;13.13;;;8.82;;
20014;SDS011;61787;42.022;23.078;2024-03-23T06:35:03;14.90;;;9.85;;
20014;SDS011;61787;42.022;23.078;2024-03-23T06:36:11;14.52;;;9.98;;
20014;SDS011;61787;42.022;23.078;2024-03-23T06:37:12;16.05;;;9.40;;
20014;SDS011;61787;42.022;23.078;2024-03-23T06:38:12;14.52;;;9.80;;
20014;SDS011;61787;42.022;23.078;2024-03-23T06:39:13;14.48;;;9.32;;
20014;SDS011;61787;42.022;23.078;2024-03-23T06:40:15;14.60;;;9.35;;
20014;SDS011;61787;42.022;23.078;2024-03-23T06:41:16;14.73;;;8.85;;
20014;SDS011;61787;42.022;23.078;2024-03-23T06:42:17;13.10;;;8.55;;
20014;SDS011;61787;42.022;23.078;2024-03-23T06:43:18;15.82;;;9.27;;
20014;SDS011;61787;42.022;23.078;2024-03-23T06:44:18;13.85;;;8.15;;
20014;SDS011;61787;42.022;23.078;2024-03-23T06:45:20;12.82;;;7.80;;
20014;SDS011;61787;42.022;23.078;2024-03-23T06:46:23;12.85;;;8.10;;
20014;SDS011;61787;42.022;23.078;2024-03-23T06:47:23;13.13;;;8.77;;
20014;SDS011;61787;42.022;23.078;2024-03-23T06:48:25;13.27;;;8.13;;
20014;SDS011;61787;42.022;23.078;2024-03-23T06:49:26;14.10;;;9.57;;
20014;SDS011;61787;42.022;23.078;2024-03-23T06:50:27;11.93;;;8.68;;
20014;SDS011;61787;42.022;23.078;2024-03-23T06:51:28;13.38;;;7.72;;
20014;SDS011;61787;42.022;23.078;2024-03-23T06:52:29;16.85;;;9.07;;